Terminal Aerodrome Forecast
Issued by NWS Bismarck, ND

Home | Current Version | Previous Version | Graphics & Text | Print | Product List | Glossary On
Versions: 1 2 3 4 5 6 7 8 9 10 11 12 13 14 15 16 17 18 19 20 21 22 23 24 25 26
198
FTUS43 KBIS 280407 AAC
TAFBIS
TAF AMD
KBIS 280407Z 2804/2824 03007KT P6SM OVC025
      TEMPO 2804/2806 OVC015
     FM280600 04007KT P6SM OVC013
     FM281200 05006KT P6SM OVC008
     FM281600 07006KT P6SM BKN015 BKN035
     FM282000 08005KT P6SM BKN035=

USA.gov is the U.S. government's official web portal to all federal, state and local government web resources and services.